»·PEaware :: N47332B L88-KSBP

N47332B :: L88-KSBP

FLIGHT INFORMATION

Flight Status: Arrived
Operator: Privately registered:
United States
More flights under this callsign
Pilot: Doug M. (17614)
Aircraft: CESSNA 172 SKYHAWK
(C172)
More flights by this aircraft type
Origin: L88 New Cuyama
United States
Destination: KSBP San Luis Co Regl
United States
More flights between these airports :: More routes between these airports
Route:
File this flight plan on PilotEdge
Remarks: CAT2
Altitude:
(Current/Filed)
6,500ft
Speed:
(Current/Filed)
115kts
Departed: 29-Dec-17 06:42 PM
Arrived: 29-Dec-17 07:40 PM
Distance/Time
Traveled:
50nm/0:58
Distance/Time
To Go:
Arrived

Flight Plot

Page will automatically refresh every two minutes.


Map Options




Map Legend


Flown Route
Filed Route
Departure Airport
Arrival Airport
Navaid (VOR, NDB)
Fix

Horizontal Profiles

Position Reports

Time Latitude Longitude Heading Altitude Ground
Speed
29-Dec-17 18:43 34.943922 -119.690797 202 2206ft 0kts
29-Dec-17 18:44 34.943922 -119.690797 202 2206ft 0kts
29-Dec-17 18:45 34.943922 -119.690797 202 2206ft 0kts
29-Dec-17 18:46 34.943486 -119.690925 190 2206ft 7kts
29-Dec-17 18:47 34.942630 -119.691180 208 2206ft 3kts
29-Dec-17 18:48 34.938773 -119.682789 118 2206ft 59kts
29-Dec-17 18:49 34.937791 -119.678139 22 2206ft 11kts
29-Dec-17 18:50 34.937600 -119.679194 244 2206ft 13kts
29-Dec-17 18:51 34.942824 -119.692661 289 2457ft 80kts
29-Dec-17 18:52 34.954165 -119.714712 297 3271ft 82kts
29-Dec-17 18:53 34.967931 -119.736016 305 4037ft 83kts
29-Dec-17 18:54 34.979107 -119.758196 280 4770ft 82kts
29-Dec-17 18:55 34.986671 -119.781347 287 5413ft 86kts
29-Dec-17 18:56 34.996848 -119.802304 317 6017ft 89kts
29-Dec-17 18:57 35.009929 -119.819945 297 6575ft 88kts
29-Dec-17 18:58 35.027465 -119.830923 294 6956ft 102kts
29-Dec-17 18:59 35.035620 -119.856270 291 6481ft 95kts
29-Dec-17 19:00 35.046023 -119.883933 292 6477ft 123kts
29-Dec-17 19:01 35.059654 -119.912224 302 6473ft 118kts
29-Dec-17 19:02 35.075676 -119.939705 308 6475ft 118kts
29-Dec-17 19:03 35.093154 -119.965818 307 6475ft 117kts
29-Dec-17 19:04 35.105911 -119.994578 282 6476ft 116kts
29-Dec-17 19:05 35.111500 -120.024369 282 6476ft 116kts
29-Dec-17 19:06 35.117153 -120.053988 283 6477ft 116kts
29-Dec-17 19:07 35.122676 -120.082653 283 6478ft 116kts
29-Dec-17 19:08 35.129327 -120.117044 283 6479ft 117kts
29-Dec-17 19:09 35.135716 -120.149893 284 6479ft 110kts
29-Dec-17 19:10 35.141837 -120.181369 284 6480ft 108kts
29-Dec-17 19:11 35.147787 -120.212228 284 6482ft 109kts
29-Dec-17 19:12 35.153730 -120.242714 284 6481ft 111kts
29-Dec-17 19:13 35.159776 -120.274181 284 6480ft 112kts
29-Dec-17 19:14 35.165858 -120.305745 283 6478ft 112kts
29-Dec-17 19:15 35.172027 -120.337666 283 6475ft 112kts
29-Dec-17 19:16 35.177660 -120.366908 284 6473ft 112kts
29-Dec-17 19:17 35.183325 -120.396465 284 6469ft 110kts
29-Dec-17 19:18 35.188815 -120.424696 284 6466ft 103kts
29-Dec-17 19:19 35.193770 -120.450370 284 6388ft 101kts
29-Dec-17 19:20 35.198935 -120.476850 283 5725ft 100kts
29-Dec-17 19:21 35.204145 -120.503874 283 4986ft 100kts
29-Dec-17 19:22 35.210874 -120.528845 323 4270ft 100kts
29-Dec-17 19:23 35.226832 -120.519267 88 3611ft 106kts
29-Dec-17 19:24 35.222810 -120.494673 102 3351ft 82kts
29-Dec-17 19:25 35.217945 -120.468477 102 3371ft 122kts
29-Dec-17 19:26 35.211683 -120.434875 102 3366ft 135kts
29-Dec-17 19:27 35.199697 -120.405348 169 3359ft 120kts
29-Dec-17 19:28 35.178697 -120.417897 271 3363ft 101kts
29-Dec-17 19:29 35.183371 -120.446814 282 3365ft 104kts
29-Dec-17 19:30 35.191019 -120.472560 330 3362ft 106kts
29-Dec-17 19:31 35.208172 -120.460387 90 3362ft 114kts
29-Dec-17 19:32 35.203420 -120.428831 100 3364ft 114kts
29-Dec-17 19:33 35.187020 -120.414176 196 3366ft 111kts
29-Dec-17 19:34 35.182066 -120.440629 281 3365ft 106kts
29-Dec-17 19:46 35.238218 -120.637716 85 214ft 0kts
29-Dec-17 19:47 35.238218 -120.637716 85 214ft 0kts
29-Dec-17 19:48 35.238218 -120.637716 85 214ft 0kts
29-Dec-17 19:49 35.238218 -120.637716 85 214ft 0kts

Navigation Log

Ident Type
1. L88 Airport
2. KSBP Airport